createdAt,value
2022-12-05T00:01:59.945Z,4.50
2022-12-05T00:04:28.279Z,4.40
2022-12-05T00:06:57.932Z,4.40
2022-12-05T00:09:26.208Z,4.30
2022-12-05T00:11:54.469Z,4.30
2022-12-05T00:14:22.679Z,4.30
2022-12-05T00:16:51.025Z,4.20
2022-12-05T00:19:19.299Z,4.30
2022-12-05T00:21:47.556Z,4.10
2022-12-05T00:24:17.835Z,4.10
2022-12-05T00:26:46.363Z,4.10
2022-12-05T00:29:14.836Z,4.10
2022-12-05T00:31:43.289Z,4.10
2022-12-05T00:34:11.798Z,4.10
2022-12-05T00:36:40.070Z,4.10
2022-12-05T00:39:10.348Z,4.10
2022-12-05T00:41:40.321Z,4.10
2022-12-05T00:44:08.867Z,4.10
2022-12-05T00:46:38.249Z,4.10
2022-12-05T00:49:08.388Z,4.10
2022-12-05T00:51:38.975Z,4.20
2022-12-05T00:54:13.610Z,4.20
2022-12-05T00:56:43.776Z,4.20
2022-12-05T00:59:16.753Z,4.20
2022-12-05T01:01:45.944Z,4.30
2022-12-05T01:04:16.536Z,4.30
2022-12-05T01:06:45.404Z,4.30
2022-12-05T01:09:15.749Z,4.40
2022-12-05T01:11:45.899Z,4.40
2022-12-05T01:14:15.407Z,4.50
2022-12-05T01:16:45.231Z,4.40
2022-12-05T01:19:16.627Z,4.50
2022-12-05T01:21:45.377Z,4.50
2022-12-05T01:24:13.847Z,4.50
2022-12-05T01:26:44.040Z,4.50
2022-12-05T01:29:13.656Z,4.50
2022-12-05T01:31:42.112Z,4.60
2022-12-05T01:34:14.986Z,4.60
2022-12-05T01:36:43.572Z,4.60
2022-12-05T01:39:12.773Z,4.70
2022-12-05T01:41:51.287Z,4.70
2022-12-05T01:44:56.605Z,4.70
2022-12-05T01:47:26.107Z,4.70
2022-12-05T01:49:54.737Z,4.70
2022-12-05T01:52:28.815Z,4.70
2022-12-05T01:55:01.163Z,4.70
2022-12-05T01:57:31.787Z,4.70
2022-12-05T02:00:04.213Z,4.70
2022-12-05T02:02:33.933Z,4.60
2022-12-05T02:05:05.862Z,4.70
2022-12-05T02:07:35.261Z,4.70
2022-12-05T02:10:03.516Z,4.70
2022-12-05T02:12:33.122Z,4.70
2022-12-05T02:15:13.851Z,4.70
2022-12-05T02:17:49.339Z,4.70
2022-12-05T02:20:30.007Z,4.70
2022-12-05T02:23:30.451Z,4.70
2022-12-05T02:26:25.763Z,4.70
2022-12-05T02:29:27.783Z,4.60
2022-12-05T02:32:05.276Z,4.50
2022-12-05T02:34:37.903Z,4.40
2022-12-05T02:37:14.099Z,4.30
2022-12-05T02:39:48.522Z,4.20
2022-12-05T02:42:22.971Z,4.10
2022-12-05T02:44:55.535Z,4.10
2022-12-05T02:47:28.884Z,4.00
2022-12-05T02:49:58.605Z,4.10
2022-12-05T02:52:28.972Z,4.10
2022-12-05T02:54:58.050Z,4.10
2022-12-05T02:57:26.321Z,4.10
2022-12-05T02:59:54.685Z,4.20
2022-12-05T03:02:31.448Z,4.10
2022-12-05T03:05:05.631Z,4.10
2022-12-05T03:07:35.111Z,4.00
2022-12-05T03:10:08.668Z,4.00
2022-12-05T03:12:42.424Z,4.00
2022-12-05T03:15:15.624Z,4.00
2022-12-05T03:17:49.660Z,3.90
2022-12-05T03:20:24.460Z,3.90
2022-12-05T03:22:59.063Z,3.90
2022-12-05T03:25:36.280Z,3.90
2022-12-05T03:28:11.125Z,4.00
2022-12-05T03:30:40.331Z,4.00
2022-12-05T03:33:14.003Z,4.10
2022-12-05T03:35:50.739Z,4.20
2022-12-05T03:38:26.605Z,4.20
2022-12-05T03:40:58.391Z,4.30
2022-12-05T03:43:28.973Z,4.30
2022-12-05T03:46:01.914Z,4.30
2022-12-05T03:48:36.435Z,4.20
2022-12-05T03:51:07.647Z,4.20
2022-12-05T03:53:39.292Z,4.20
2022-12-05T03:56:12.459Z,4.10
2022-12-05T03:58:45.187Z,4.00
2022-12-05T04:01:15.889Z,4.00
2022-12-05T04:03:51.675Z,3.90
2022-12-05T04:06:26.124Z,3.80
2022-12-05T04:08:58.722Z,3.80
2022-12-05T04:11:30.440Z,3.70
2022-12-05T04:14:00.587Z,3.70
2022-12-05T04:16:52.039Z,3.80
2022-12-05T04:19:27.729Z,3.60
2022-12-05T04:21:57.117Z,3.60
2022-12-05T04:24:46.819Z,3.60
2022-12-05T04:27:25.308Z,3.60
2022-12-05T04:30:01.244Z,3.60
2022-12-05T04:32:34.010Z,3.60
2022-12-05T04:35:10.697Z,3.60
2022-12-05T04:37:42.279Z,3.60
2022-12-05T04:40:13.886Z,3.60
2022-12-05T04:42:43.936Z,3.60
2022-12-05T04:45:15.748Z,3.60
2022-12-05T04:47:44.891Z,3.70
2022-12-05T04:50:16.056Z,3.60
2022-12-05T04:52:46.830Z,3.60
2022-12-05T04:55:17.956Z,3.60
2022-12-05T04:57:53.883Z,3.60
2022-12-05T05:00:22.325Z,3.60
2022-12-05T05:02:56.704Z,3.60
2022-12-05T05:05:27.749Z,3.60
2022-12-05T05:07:56.731Z,3.60
2022-12-05T05:10:32.412Z,3.60
2022-12-05T05:13:00.648Z,3.50
2022-12-05T05:15:28.831Z,3.50
2022-12-05T05:17:57.119Z,3.50
2022-12-05T05:20:27.385Z,3.50
2022-12-05T05:22:57.583Z,3.50
2022-12-05T05:25:26.705Z,3.50
2022-12-05T05:27:56.684Z,3.50
2022-12-05T05:30:26.209Z,3.50
2022-12-05T05:32:54.919Z,3.50
2022-12-05T05:35:23.314Z,3.50
2022-12-05T05:37:52.936Z,3.50
2022-12-05T05:40:21.319Z,3.50
2022-12-05T05:42:51.764Z,3.50
2022-12-05T05:45:20.018Z,3.60
2022-12-05T05:47:50.337Z,3.60
2022-12-05T05:50:21.854Z,3.60
2022-12-05T05:52:50.384Z,3.60
2022-12-05T05:55:20.813Z,3.60
2022-12-05T05:57:49.258Z,3.60
2022-12-05T06:00:18.116Z,3.60
2022-12-05T06:02:46.450Z,3.60
2022-12-05T06:05:14.823Z,3.60
2022-12-05T06:07:43.165Z,3.60
2022-12-05T06:10:11.533Z,3.60
2022-12-05T06:12:41.118Z,3.60
2022-12-05T06:15:10.432Z,3.60
2022-12-05T06:17:38.720Z,3.70
2022-12-05T06:20:08.499Z,3.70
2022-12-05T06:22:36.751Z,3.70
2022-12-05T06:25:05.364Z,3.70
2022-12-05T06:27:33.760Z,3.70
2022-12-05T06:30:03.395Z,3.70
2022-12-05T06:32:31.839Z,3.80
2022-12-05T06:35:00.069Z,3.80
2022-12-05T06:37:28.281Z,3.80
2022-12-05T06:39:56.709Z,3.90
2022-12-05T06:42:25.182Z,3.90
2022-12-05T06:44:53.347Z,3.90
2022-12-05T06:47:22.923Z,3.80
2022-12-05T06:49:51.120Z,3.80
2022-12-05T06:52:19.406Z,3.80
2022-12-05T06:54:47.594Z,3.80
2022-12-05T06:57:16.000Z,3.80
2022-12-05T06:59:44.227Z,3.80
2022-12-05T07:02:13.533Z,3.90
2022-12-05T07:04:43.486Z,3.90
2022-12-05T07:07:13.249Z,4.00
2022-12-05T07:09:48.539Z,4.00
2022-12-05T07:12:19.367Z,4.00
2022-12-05T07:14:49.426Z,4.10
2022-12-05T07:17:18.389Z,4.10
2022-12-05T07:19:48.769Z,4.10
2022-12-05T07:22:17.117Z,4.20
2022-12-05T07:24:45.640Z,4.20
2022-12-05T07:27:14.837Z,4.20
2022-12-05T07:29:43.201Z,4.20
2022-12-05T07:32:11.543Z,4.00
2022-12-05T07:34:39.950Z,4.10
2022-12-05T07:37:09.495Z,4.20
2022-12-05T07:39:37.726Z,4.10
2022-12-05T07:42:06.079Z,4.20
2022-12-05T07:44:34.935Z,4.20
2022-12-05T07:47:03.119Z,4.20
2022-12-05T07:49:31.310Z,4.30
2022-12-05T07:51:59.502Z,4.40
2022-12-05T07:54:29.092Z,4.40
2022-12-05T07:56:57.316Z,4.30
2022-12-05T07:59:25.494Z,4.30
2022-12-05T08:01:53.719Z,4.30
2022-12-05T08:04:22.000Z,4.40
2022-12-05T08:06:50.200Z,4.40
2022-12-05T08:09:18.394Z,4.40
2022-12-05T08:11:52.342Z,4.40
2022-12-05T08:14:21.698Z,4.50
2022-12-05T08:16:49.993Z,4.50
2022-12-05T08:19:18.193Z,4.60
2022-12-05T08:21:46.876Z,4.60
2022-12-05T08:24:15.067Z,4.70
2022-12-05T08:26:43.295Z,4.70
2022-12-05T08:29:14.944Z,4.80
2022-12-05T08:31:47.230Z,4.90
2022-12-05T08:34:16.237Z,5.00
2022-12-05T08:36:44.527Z,4.90
2022-12-05T08:39:16.131Z,4.90
2022-12-05T08:41:45.418Z,5.00
2022-12-05T08:44:16.532Z,5.00
2022-12-05T08:46:46.256Z,5.10
2022-12-05T08:49:15.046Z,5.10
2022-12-05T08:51:44.115Z,5.20
2022-12-05T08:54:12.604Z,5.10
2022-12-05T08:56:41.170Z,5.10
2022-12-05T08:59:09.649Z,5.10
2022-12-05T09:01:40.524Z,5.10
2022-12-05T09:04:09.602Z,5.10
2022-12-05T09:06:39.323Z,5.00
2022-12-05T09:09:11.725Z,4.80
2022-12-05T09:11:46.499Z,4.70
2022-12-05T09:14:15.537Z,4.80
2022-12-05T09:16:47.466Z,4.80
2022-12-05T09:19:17.785Z,4.80
2022-12-05T09:21:46.455Z,4.80
2022-12-05T09:24:15.683Z,4.80
2022-12-05T09:26:44.749Z,4.80
2022-12-05T09:29:17.050Z,4.80
2022-12-05T09:31:48.865Z,4.80
2022-12-05T09:34:18.547Z,4.80
2022-12-05T09:36:49.701Z,4.80
2022-12-05T09:39:17.933Z,4.80
2022-12-05T09:42:21.955Z,4.80
2022-12-05T09:45:19.709Z,4.80
2022-12-05T09:47:58.168Z,4.90
2022-12-05T09:50:28.545Z,4.80
2022-12-05T09:53:23.090Z,4.80
2022-12-05T09:55:54.312Z,4.80
2022-12-05T09:58:29.048Z,4.80
2022-12-05T10:01:04.408Z,4.80
2022-12-05T10:03:42.405Z,4.70
2022-12-05T10:06:16.578Z,4.60
2022-12-05T10:09:02.685Z,4.60
2022-12-05T10:11:37.289Z,4.60
2022-12-05T10:14:14.527Z,4.60
2022-12-05T10:16:49.978Z,4.60
2022-12-05T10:19:24.995Z,4.60
2022-12-05T10:21:59.091Z,4.50
2022-12-05T10:24:31.645Z,4.50
2022-12-05T10:27:03.165Z,4.50
2022-12-05T10:29:34.716Z,4.40
2022-12-05T10:32:08.531Z,4.40
2022-12-05T10:34:40.631Z,4.30
2022-12-05T10:37:16.692Z,4.30
2022-12-05T10:39:45.270Z,4.20
2022-12-05T10:42:17.128Z,4.20
2022-12-05T10:44:46.251Z,4.20
2022-12-05T10:47:14.573Z,4.20
2022-12-05T10:49:44.698Z,4.30
2022-12-05T10:52:15.499Z,4.30
2022-12-05T10:54:48.483Z,4.30
2022-12-05T10:57:25.442Z,4.30
2022-12-05T10:59:54.586Z,4.50
2022-12-05T11:02:28.219Z,4.50
2022-12-05T11:04:58.639Z,4.40
2022-12-05T11:07:31.954Z,4.50
2022-12-05T11:10:01.876Z,4.60
2022-12-05T11:12:37.468Z,4.50
2022-12-05T11:15:24.952Z,4.50
2022-12-05T11:17:54.675Z,4.50
2022-12-05T11:20:40.014Z,4.40
2022-12-05T11:23:29.060Z,4.50
2022-12-05T11:25:58.668Z,4.50
2022-12-05T11:28:35.969Z,4.40
2022-12-05T11:31:08.512Z,4.40
2022-12-05T11:33:37.772Z,4.40
2022-12-05T11:36:14.795Z,4.40
2022-12-05T11:38:43.363Z,4.30
2022-12-05T11:41:31.402Z,4.30
2022-12-05T11:44:26.174Z,4.20
2022-12-05T11:47:04.694Z,4.20
2022-12-05T11:50:01.029Z,4.20
2022-12-05T11:52:40.867Z,4.20
2022-12-05T11:55:17.602Z,4.20
2022-12-05T11:58:04.801Z,4.10
2022-12-05T12:00:41.232Z,4.10
2022-12-05T12:03:33.478Z,4.10
2022-12-05T12:06:26.295Z,4.10
2022-12-05T12:09:15.636Z,4.10
2022-12-05T12:11:49.608Z,4.10
2022-12-05T12:14:26.734Z,4.20
2022-12-05T12:17:02.935Z,4.20
2022-12-05T12:19:47.417Z,4.20
2022-12-05T12:22:31.601Z,4.20
2022-12-05T12:25:18.270Z,4.20
2022-12-05T12:28:04.104Z,4.20
2022-12-05T12:30:46.471Z,4.10
2022-12-05T12:33:25.534Z,4.10
2022-12-05T12:35:59.786Z,4.20
2022-12-05T12:38:48.212Z,4.20
2022-12-05T12:41:34.229Z,4.20
2022-12-05T12:44:18.354Z,4.20
2022-12-05T12:46:53.330Z,4.30
2022-12-05T12:49:38.869Z,4.30
2022-12-05T12:52:13.595Z,4.40
2022-12-05T12:55:08.209Z,4.50
2022-12-05T12:57:52.651Z,4.60
2022-12-05T13:00:28.380Z,4.60
2022-12-05T13:03:04.945Z,4.60
2022-12-05T13:05:36.034Z,4.70
2022-12-05T13:08:12.115Z,4.80
2022-12-05T13:10:43.995Z,4.80
2022-12-05T13:13:17.752Z,4.70
2022-12-05T13:15:49.149Z,4.80
2022-12-05T13:18:19.377Z,4.90
2022-12-05T13:20:50.562Z,4.90
2022-12-05T13:23:26.970Z,4.90
2022-12-05T13:25:57.909Z,4.90
2022-12-05T13:28:33.064Z,5.00
2022-12-05T13:31:04.881Z,5.00
2022-12-05T13:33:36.397Z,5.10
2022-12-05T13:36:29.364Z,5.20
2022-12-05T13:39:17.895Z,5.20
2022-12-05T13:42:06.086Z,5.20
2022-12-05T13:44:39.802Z,5.20
2022-12-05T13:47:10.165Z,5.20
2022-12-05T13:49:45.570Z,5.30
2022-12-05T13:52:18.694Z,5.10
2022-12-05T13:54:51.561Z,5.10
2022-12-05T13:57:51.197Z,5.10
2022-12-05T14:00:33.623Z,5.20
2022-12-05T14:03:08.410Z,5.10
2022-12-05T14:05:59.936Z,5.10
2022-12-05T14:08:58.664Z,5.10
2022-12-05T14:11:27.558Z,5.00
2022-12-05T14:14:02.412Z,5.00
2022-12-05T14:16:46.390Z,4.90
2022-12-05T14:19:34.803Z,4.90
2022-12-05T14:22:23.981Z,4.90
2022-12-05T14:25:00.085Z,4.80
2022-12-05T14:27:43.436Z,4.80
2022-12-05T14:30:22.734Z,4.80
2022-12-05T14:32:53.956Z,4.80
2022-12-05T14:35:28.707Z,4.80
2022-12-05T14:37:59.865Z,4.80
2022-12-05T14:40:33.295Z,4.80
2022-12-05T14:43:03.723Z,4.80
2022-12-05T14:45:39.067Z,4.80
2022-12-05T14:48:30.576Z,4.80
2022-12-05T14:51:00.240Z,4.80
2022-12-05T14:53:39.171Z,4.80
2022-12-05T14:56:17.812Z,4.80
2022-12-05T14:58:51.326Z,4.80
2022-12-05T15:01:23.499Z,4.80
2022-12-05T15:04:18.591Z,4.70
2022-12-05T15:06:51.124Z,4.70
2022-12-05T15:09:45.356Z,4.70
2022-12-05T15:12:17.887Z,4.70
2022-12-05T15:14:51.366Z,4.60
2022-12-05T15:17:26.640Z,4.60
2022-12-05T15:20:03.878Z,4.50
2022-12-05T15:22:36.499Z,4.50
2022-12-05T15:25:26.874Z,4.50
2022-12-05T15:27:57.376Z,4.50
2022-12-05T15:30:26.037Z,4.40
2022-12-05T15:32:59.269Z,4.50
2022-12-05T15:35:33.287Z,4.50
2022-12-05T15:38:09.355Z,4.40
2022-12-05T15:40:38.463Z,4.40
2022-12-05T15:43:29.402Z,4.40
2022-12-05T15:46:25.421Z,4.30
2022-12-05T15:48:55.122Z,4.30
2022-12-05T15:51:30.045Z,4.30
2022-12-05T15:54:03.416Z,4.30
2022-12-05T15:56:35.587Z,4.30
2022-12-05T15:59:07.255Z,4.20
2022-12-05T16:01:40.660Z,4.20
2022-12-05T16:04:17.177Z,4.00
2022-12-05T16:06:49.651Z,4.20
2022-12-05T16:09:21.366Z,4.20
2022-12-05T16:11:56.105Z,4.20
2022-12-05T16:17:17.701Z,4.10
2022-12-05T16:19:46.409Z,4.10
2022-12-05T16:22:23.832Z,4.10
2022-12-05T16:25:01.774Z,4.10
2022-12-05T16:27:33.443Z,4.00
2022-12-05T16:30:11.014Z,4.00
2022-12-05T16:32:39.955Z,3.90
2022-12-05T16:35:33.368Z,3.90
2022-12-05T16:38:14.555Z,3.90
2022-12-05T16:40:52.950Z,3.90
2022-12-05T16:43:25.896Z,3.90
2022-12-05T16:45:56.444Z,3.90
2022-12-05T16:48:26.476Z,3.90
2022-12-05T16:51:12.978Z,3.80
2022-12-05T16:53:46.104Z,3.80
2022-12-05T16:56:17.235Z,3.80
2022-12-05T16:58:45.516Z,3.80
2022-12-05T17:01:18.759Z,3.90
2022-12-05T17:03:47.443Z,3.90
2022-12-05T17:06:16.215Z,3.90
2022-12-05T17:08:45.915Z,3.90
2022-12-05T17:11:17.211Z,3.90
2022-12-05T17:13:48.448Z,3.90
2022-12-05T17:16:17.371Z,3.90
2022-12-05T17:18:45.872Z,3.90
2022-12-05T17:21:17.614Z,3.80
2022-12-05T17:23:48.334Z,3.90
2022-12-05T17:26:17.793Z,3.90
2022-12-05T17:28:46.300Z,3.90
2022-12-05T17:31:17.153Z,4.00
2022-12-05T17:33:45.980Z,4.00
2022-12-05T17:36:15.108Z,4.00
2022-12-05T17:38:44.430Z,3.90
2022-12-05T17:41:17.379Z,3.90
2022-12-05T17:43:46.116Z,3.90
2022-12-05T17:46:17.038Z,3.80
2022-12-05T17:48:45.336Z,3.80
2022-12-05T17:51:14.730Z,3.80
2022-12-05T17:53:44.533Z,3.80
2022-12-05T17:56:14.946Z,3.80
2022-12-05T17:58:43.469Z,3.80
2022-12-05T18:01:16.739Z,3.80
2022-12-05T18:03:45.196Z,3.80
2022-12-05T18:06:13.923Z,3.80
2022-12-05T18:08:45.038Z,3.80
2022-12-05T18:11:15.255Z,3.80
2022-12-05T18:13:43.979Z,3.80
2022-12-05T18:16:12.430Z,3.80
2022-12-05T18:18:41.068Z,3.90
2022-12-05T18:21:11.188Z,3.90
2022-12-05T18:23:40.509Z,3.90
2022-12-05T18:26:10.846Z,3.80
2022-12-05T18:28:41.314Z,3.80
2022-12-05T18:31:11.939Z,3.80
2022-12-05T18:33:40.561Z,3.70
2022-12-05T18:36:11.430Z,3.70
2022-12-05T18:38:40.813Z,3.60
2022-12-05T18:41:09.079Z,3.60
2022-12-05T18:43:37.344Z,3.60
2022-12-05T18:46:07.591Z,3.70
2022-12-05T18:48:42.677Z,3.70
2022-12-05T18:51:16.644Z,3.60
2022-12-05T18:53:52.240Z,3.60
2022-12-05T18:56:24.243Z,3.60
2022-12-05T18:58:57.405Z,3.60
2022-12-05T19:01:28.261Z,3.50
2022-12-05T19:03:57.923Z,3.50
2022-12-05T19:06:29.718Z,3.50
2022-12-05T19:08:58.463Z,3.50
2022-12-05T19:11:28.288Z,3.60
2022-12-05T19:13:57.321Z,3.60
2022-12-05T19:16:27.703Z,3.70
2022-12-05T19:18:56.936Z,3.70
2022-12-05T19:21:26.397Z,3.70
2022-12-05T19:23:55.260Z,3.60
2022-12-05T19:26:24.735Z,3.60
2022-12-05T19:28:53.224Z,3.60
2022-12-05T19:31:23.580Z,3.60
2022-12-05T19:33:55.275Z,3.70
2022-12-05T19:36:23.993Z,3.80
2022-12-05T19:38:54.112Z,3.70
2022-12-05T19:41:24.323Z,3.80
2022-12-05T19:43:52.952Z,3.70
2022-12-05T19:46:24.861Z,3.70
2022-12-05T19:48:56.791Z,3.80
2022-12-05T19:51:25.313Z,3.80
2022-12-05T19:53:53.855Z,3.90
2022-12-05T19:56:23.817Z,3.90
2022-12-05T19:58:52.706Z,4.00
2022-12-05T20:01:23.430Z,4.00
2022-12-05T20:03:53.775Z,3.90
2022-12-05T20:06:23.883Z,3.90
2022-12-05T20:08:53.514Z,3.90
2022-12-05T20:11:25.184Z,3.80
2022-12-05T20:13:53.790Z,3.80
2022-12-05T20:16:23.713Z,3.70
2022-12-05T20:18:51.939Z,3.80
2022-12-05T20:21:23.971Z,3.80
2022-12-05T20:23:53.144Z,3.90
2022-12-05T20:26:22.802Z,3.90
2022-12-05T20:28:51.516Z,3.90
2022-12-05T20:31:22.121Z,3.90
2022-12-05T20:33:51.385Z,3.90
2022-12-05T20:36:23.052Z,3.80
2022-12-05T20:38:55.604Z,3.60
2022-12-05T20:41:24.131Z,3.60
2022-12-05T20:43:55.876Z,3.50
2022-12-05T20:46:24.467Z,3.50
2022-12-05T20:48:53.815Z,3.30
2022-12-05T20:51:25.479Z,3.20
2022-12-05T20:53:54.223Z,3.30
2022-12-05T20:56:25.287Z,3.30
2022-12-05T20:58:55.818Z,3.30
2022-12-05T21:01:25.432Z,3.20
2022-12-05T21:03:54.710Z,3.20
2022-12-05T21:06:26.274Z,3.10
2022-12-05T21:08:55.050Z,3.00
2022-12-05T21:11:23.885Z,2.90
2022-12-05T21:13:52.523Z,2.90
2022-12-05T21:16:23.069Z,2.90
2022-12-05T21:18:52.058Z,2.90
2022-12-05T21:21:22.082Z,2.80
2022-12-05T21:23:55.504Z,2.90
2022-12-05T21:26:25.487Z,2.90
2022-12-05T21:28:53.825Z,2.90
2022-12-05T21:31:24.843Z,2.90
2022-12-05T21:33:55.322Z,2.90
2022-12-05T21:36:24.684Z,2.90
2022-12-05T21:38:56.548Z,2.90
2022-12-05T21:41:25.236Z,2.80
2022-12-05T21:43:55.235Z,2.80
2022-12-05T21:46:24.399Z,2.70
2022-12-05T21:48:52.676Z,2.60
2022-12-05T21:51:21.478Z,2.60
2022-12-05T21:53:49.885Z,2.60
2022-12-05T21:56:22.881Z,2.50
2022-12-05T21:58:51.415Z,2.60
2022-12-05T22:01:21.825Z,2.60
2022-12-05T22:03:53.648Z,2.70
2022-12-05T22:06:21.848Z,2.60
2022-12-05T22:08:50.054Z,2.60
2022-12-05T22:11:21.246Z,2.60
2022-12-05T22:13:50.385Z,2.70
2022-12-05T22:16:19.338Z,2.70
2022-12-05T22:18:47.986Z,2.70
2022-12-05T22:21:17.655Z,2.80
2022-12-05T22:23:46.500Z,2.80
2022-12-05T22:26:17.142Z,2.70
2022-12-05T22:28:47.993Z,2.70
2022-12-05T22:31:17.565Z,2.70
2022-12-05T22:33:46.653Z,2.70
2022-12-05T22:36:16.347Z,2.80
2022-12-05T22:38:46.935Z,2.80
2022-12-05T22:41:16.644Z,2.80
2022-12-05T22:43:48.115Z,2.90
2022-12-05T22:46:18.856Z,2.90
2022-12-05T22:48:48.506Z,2.90
2022-12-05T22:51:17.822Z,2.80
2022-12-05T22:53:46.473Z,2.90
2022-12-05T22:56:16.127Z,2.80
2022-12-05T22:58:46.336Z,2.80
2022-12-05T23:01:17.323Z,2.70
2022-12-05T23:03:47.140Z,2.70
2022-12-05T23:06:17.112Z,2.70
2022-12-05T23:08:47.832Z,2.70
2022-12-05T23:11:17.452Z,2.60
2022-12-05T23:13:46.322Z,2.60
2022-12-05T23:16:20.689Z,2.50
2022-12-05T23:18:49.464Z,2.40
2022-12-05T23:21:19.756Z,2.30
2022-12-05T23:23:48.942Z,2.30
2022-12-05T23:26:17.459Z,2.30
2022-12-05T23:28:45.799Z,2.20
2022-12-05T23:31:15.958Z,2.10
2022-12-05T23:33:44.307Z,2.00
2022-12-05T23:36:13.211Z,2.00
2022-12-05T23:38:42.739Z,2.00
2022-12-05T23:41:14.302Z,1.90
2022-12-05T23:43:43.616Z,1.90
2022-12-05T23:46:13.719Z,1.80
2022-12-05T23:48:43.410Z,1.80
2022-12-05T23:51:14.017Z,1.70
2022-12-05T23:53:43.585Z,1.70
2022-12-05T23:56:14.107Z,1.60
2022-12-05T23:58:42.767Z,1.60
